sensor_id;sensor_type;location;lat;lon;timestamp;temperature;humidity
48836;DHT22;62581;47.342;7.908;2023-08-06T00:00:54;17.20;99.90
48836;DHT22;62581;47.342;7.908;2023-08-06T00:03:20;17.10;99.90
48836;DHT22;62581;47.342;7.908;2023-08-06T00:05:47;17.10;99.90
48836;DHT22;62581;47.342;7.908;2023-08-06T00:08:15;17.10;99.90
48836;DHT22;62581;47.342;7.908;2023-08-06T00:10:42;17.10;99.90
48836;DHT22;62581;47.342;7.908;2023-08-06T00:13:09;17.10;99.90
48836;DHT22;62581;47.342;7.908;2023-08-06T00:15:35;17.10;99.90
48836;DHT22;62581;47.342;7.908;2023-08-06T00:18:02;17.00;99.90
48836;DHT22;62581;47.342;7.908;2023-08-06T00:20:29;17.00;99.90
48836;DHT22;62581;47.342;7.908;2023-08-06T00:22:56;17.00;99.90
48836;DHT22;62581;47.342;7.908;2023-08-06T00:25:24;17.00;99.90
48836;DHT22;62581;47.342;7.908;2023-08-06T00:27:51;17.00;99.90
48836;DHT22;62581;47.342;7.908;2023-08-06T00:30:17;16.90;99.90
48836;DHT22;62581;47.342;7.908;2023-08-06T00:32:44;16.90;99.90
48836;DHT22;62581;47.342;7.908;2023-08-06T00:35:11;16.80;99.90
48836;DHT22;62581;47.342;7.908;2023-08-06T00:37:38;16.70;99.90
48836;DHT22;62581;47.342;7.908;2023-08-06T00:40:06;16.70;99.90
48836;DHT22;62581;47.342;7.908;2023-08-06T00:42:34;16.60;99.90
48836;DHT22;62581;47.342;7.908;2023-08-06T00:45:01;16.50;99.90
48836;DHT22;62581;47.342;7.908;2023-08-06T00:47:28;16.60;99.90
48836;DHT22;62581;47.342;7.908;2023-08-06T00:49:55;16.50;99.90
48836;DHT22;62581;47.342;7.908;2023-08-06T00:52:21;16.50;99.90
48836;DHT22;62581;47.342;7.908;2023-08-06T00:54:48;16.50;99.90
48836;DHT22;62581;47.342;7.908;2023-08-06T00:57:16;16.50;99.90
48836;DHT22;62581;47.342;7.908;2023-08-06T00:59:45;16.40;99.90
48836;DHT22;62581;47.342;7.908;2023-08-06T01:02:11;16.40;99.90
48836;DHT22;62581;47.342;7.908;2023-08-06T01:04:38;16.40;99.90
48836;DHT22;62581;47.342;7.908;2023-08-06T01:07:08;16.40;99.90
48836;DHT22;62581;47.342;7.908;2023-08-06T01:09:41;16.40;99.90
48836;DHT22;62581;47.342;7.908;2023-08-06T01:12:15;16.40;99.90
48836;DHT22;62581;47.342;7.908;2023-08-06T01:14:48;16.40;99.90
48836;DHT22;62581;47.342;7.908;2023-08-06T01:17:17;16.40;99.90
48836;DHT22;62581;47.342;7.908;2023-08-06T01:19:44;16.40;99.90
48836;DHT22;62581;47.342;7.908;2023-08-06T01:22:12;16.40;99.90
48836;DHT22;62581;47.342;7.908;2023-08-06T01:24:40;16.40;99.90
48836;DHT22;62581;47.342;7.908;2023-08-06T01:27:09;16.40;99.90
48836;DHT22;62581;47.342;7.908;2023-08-06T01:29:38;16.40;99.90
48836;DHT22;62581;47.342;7.908;2023-08-06T01:32:07;16.40;99.90
48836;DHT22;62581;47.342;7.908;2023-08-06T01:34:35;16.40;99.90
48836;DHT22;62581;47.342;7.908;2023-08-06T01:37:02;16.40;99.90
48836;DHT22;62581;47.342;7.908;2023-08-06T01:39:31;16.40;99.90
48836;DHT22;62581;47.342;7.908;2023-08-06T01:41:59;16.40;99.90
48836;DHT22;62581;47.342;7.908;2023-08-06T01:44:26;16.40;99.90
48836;DHT22;62581;47.342;7.908;2023-08-06T01:46:53;16.40;99.90
48836;DHT22;62581;47.342;7.908;2023-08-06T01:49:19;16.40;99.90
48836;DHT22;62581;47.342;7.908;2023-08-06T01:51:46;16.40;99.90
48836;DHT22;62581;47.342;7.908;2023-08-06T01:54:13;16.30;99.90
48836;DHT22;62581;47.342;7.908;2023-08-06T01:56:41;16.30;99.90
48836;DHT22;62581;47.342;7.908;2023-08-06T01:59:08;16.20;99.90
48836;DHT22;62581;47.342;7.908;2023-08-06T02:01:35;16.20;99.90
48836;DHT22;62581;47.342;7.908;2023-08-06T02:04:02;16.20;99.90
48836;DHT22;62581;47.342;7.908;2023-08-06T02:06:28;16.20;99.90
48836;DHT22;62581;47.342;7.908;2023-08-06T02:08:55;16.10;99.90
48836;DHT22;62581;47.342;7.908;2023-08-06T02:11:22;16.10;99.90
48836;DHT22;62581;47.342;7.908;2023-08-06T02:13:50;16.10;99.90
48836;DHT22;62581;47.342;7.908;2023-08-06T02:16:17;16.10;99.90
48836;DHT22;62581;47.342;7.908;2023-08-06T02:18:44;16.10;99.90
48836;DHT22;62581;47.342;7.908;2023-08-06T02:21:10;16.10;99.90
48836;DHT22;62581;47.342;7.908;2023-08-06T02:23:37;16.10;99.90
48836;DHT22;62581;47.342;7.908;2023-08-06T02:26:04;16.00;99.90
48836;DHT22;62581;47.342;7.908;2023-08-06T02:28:31;16.00;99.90
48836;DHT22;62581;47.342;7.908;2023-08-06T02:30:59;16.00;99.90
48836;DHT22;62581;47.342;7.908;2023-08-06T02:33:26;16.00;99.90
48836;DHT22;62581;47.342;7.908;2023-08-06T02:35:58;16.10;99.90
48836;DHT22;62581;47.342;7.908;2023-08-06T02:38:25;16.00;99.90
48836;DHT22;62581;47.342;7.908;2023-08-06T02:40:52;15.90;99.90
48836;DHT22;62581;47.342;7.908;2023-08-06T02:43:18;15.70;99.90
48836;DHT22;62581;47.342;7.908;2023-08-06T02:45:45;15.60;99.90
48836;DHT22;62581;47.342;7.908;2023-08-06T02:48:13;15.40;99.90
48836;DHT22;62581;47.342;7.908;2023-08-06T02:50:41;15.30;99.90
48836;DHT22;62581;47.342;7.908;2023-08-06T02:53:07;15.30;99.90
48836;DHT22;62581;47.342;7.908;2023-08-06T02:55:34;15.30;99.90
48836;DHT22;62581;47.342;7.908;2023-08-06T02:58:01;15.20;99.90
48836;DHT22;62581;47.342;7.908;2023-08-06T03:00:28;15.20;99.90
48836;DHT22;62581;47.342;7.908;2023-08-06T03:02:55;15.10;99.90
48836;DHT22;62581;47.342;7.908;2023-08-06T03:05:23;15.10;99.90
48836;DHT22;62581;47.342;7.908;2023-08-06T03:07:50;15.10;99.90
48836;DHT22;62581;47.342;7.908;2023-08-06T03:10:17;15.10;99.90
48836;DHT22;62581;47.342;7.908;2023-08-06T03:12:43;15.10;99.90
48836;DHT22;62581;47.342;7.908;2023-08-06T03:15:10;15.00;99.90
48836;DHT22;62581;47.342;7.908;2023-08-06T03:17:37;15.00;99.90
48836;DHT22;62581;47.342;7.908;2023-08-06T03:20:04;15.10;99.90
48836;DHT22;62581;47.342;7.908;2023-08-06T03:22:32;15.10;99.90
48836;DHT22;62581;47.342;7.908;2023-08-06T03:24:59;15.20;99.90
48836;DHT22;62581;47.342;7.908;2023-08-06T03:27:26;15.20;99.90
48836;DHT22;62581;47.342;7.908;2023-08-06T03:29:53;15.20;99.90
48836;DHT22;62581;47.342;7.908;2023-08-06T03:32:19;15.20;99.90
48836;DHT22;62581;47.342;7.908;2023-08-06T03:34:46;15.30;99.90
48836;DHT22;62581;47.342;7.908;2023-08-06T03:37:13;15.20;99.90
48836;DHT22;62581;47.342;7.908;2023-08-06T03:39:41;15.20;99.90
48836;DHT22;62581;47.342;7.908;2023-08-06T03:42:08;15.20;99.90
48836;DHT22;62581;47.342;7.908;2023-08-06T03:44:34;15.20;99.90
48836;DHT22;62581;47.342;7.908;2023-08-06T03:47:01;15.20;99.90
48836;DHT22;62581;47.342;7.908;2023-08-06T03:49:28;15.10;99.90
48836;DHT22;62581;47.342;7.908;2023-08-06T03:51:54;15.20;99.90
48836;DHT22;62581;47.342;7.908;2023-08-06T03:54:21;15.20;99.90
48836;DHT22;62581;47.342;7.908;2023-08-06T03:56:49;15.20;99.90
48836;DHT22;62581;47.342;7.908;2023-08-06T03:59:16;15.20;99.90
48836;DHT22;62581;47.342;7.908;2023-08-06T04:01:43;15.30;99.90
48836;DHT22;62581;47.342;7.908;2023-08-06T04:04:09;15.30;99.90
48836;DHT22;62581;47.342;7.908;2023-08-06T04:06:36;15.30;99.90
48836;DHT22;62581;47.342;7.908;2023-08-06T04:09:03;15.40;99.90
48836;DHT22;62581;47.342;7.908;2023-08-06T04:11:30;15.40;99.90
48836;DHT22;62581;47.342;7.908;2023-08-06T04:13:58;15.40;99.90
48836;DHT22;62581;47.342;7.908;2023-08-06T04:16:24;15.40;99.90
48836;DHT22;62581;47.342;7.908;2023-08-06T04:18:52;15.40;99.90
48836;DHT22;62581;47.342;7.908;2023-08-06T04:21:20;15.40;99.90
48836;DHT22;62581;47.342;7.908;2023-08-06T04:23:47;15.40;99.90
48836;DHT22;62581;47.342;7.908;2023-08-06T04:26:14;15.30;99.90
48836;DHT22;62581;47.342;7.908;2023-08-06T04:28:41;15.30;99.90
48836;DHT22;62581;47.342;7.908;2023-08-06T04:31:09;15.40;99.90
48836;DHT22;62581;47.342;7.908;2023-08-06T04:33:36;15.30;99.90
48836;DHT22;62581;47.342;7.908;2023-08-06T04:36:02;15.30;99.90
48836;DHT22;62581;47.342;7.908;2023-08-06T04:38:29;15.30;99.90
48836;DHT22;62581;47.342;7.908;2023-08-06T04:40:56;15.30;99.90
48836;DHT22;62581;47.342;7.908;2023-08-06T04:43:23;15.30;99.90
48836;DHT22;62581;47.342;7.908;2023-08-06T04:45:50;15.20;99.90
48836;DHT22;62581;47.342;7.908;2023-08-06T04:48:20;15.20;99.90
48836;DHT22;62581;47.342;7.908;2023-08-06T04:50:46;15.10;99.90
48836;DHT22;62581;47.342;7.908;2023-08-06T04:53:14;15.00;99.90
48836;DHT22;62581;47.342;7.908;2023-08-06T04:55:40;15.10;99.90
48836;DHT22;62581;47.342;7.908;2023-08-06T04:58:08;15.00;99.90
48836;DHT22;62581;47.342;7.908;2023-08-06T05:00:35;15.00;99.90
48836;DHT22;62581;47.342;7.908;2023-08-06T05:03:02;15.00;99.90
48836;DHT22;62581;47.342;7.908;2023-08-06T05:05:30;15.00;99.90
48836;DHT22;62581;47.342;7.908;2023-08-06T05:07:57;15.00;99.90
48836;DHT22;62581;47.342;7.908;2023-08-06T05:10:24;15.00;99.90
48836;DHT22;62581;47.342;7.908;2023-08-06T05:12:50;15.00;99.90
48836;DHT22;62581;47.342;7.908;2023-08-06T05:15:17;15.00;99.90
48836;DHT22;62581;47.342;7.908;2023-08-06T05:17:44;15.00;99.90
48836;DHT22;62581;47.342;7.908;2023-08-06T05:20:11;15.00;99.90
48836;DHT22;62581;47.342;7.908;2023-08-06T05:22:39;15.10;99.90
48836;DHT22;62581;47.342;7.908;2023-08-06T05:25:06;15.10;99.90
48836;DHT22;62581;47.342;7.908;2023-08-06T05:27:33;15.20;99.90
48836;DHT22;62581;47.342;7.908;2023-08-06T05:29:59;15.30;99.90
48836;DHT22;62581;47.342;7.908;2023-08-06T05:32:26;15.40;99.90
48836;DHT22;62581;47.342;7.908;2023-08-06T05:34:53;15.40;99.90
48836;DHT22;62581;47.342;7.908;2023-08-06T05:37:20;15.50;99.90
48836;DHT22;62581;47.342;7.908;2023-08-06T05:39:48;15.50;99.90
48836;DHT22;62581;47.342;7.908;2023-08-06T05:42:15;15.60;99.90
48836;DHT22;62581;47.342;7.908;2023-08-06T05:44:41;15.60;99.90
48836;DHT22;62581;47.342;7.908;2023-08-06T05:47:08;15.60;99.90
48836;DHT22;62581;47.342;7.908;2023-08-06T05:49:35;15.60;99.90
48836;DHT22;62581;47.342;7.908;2023-08-06T05:52:02;15.70;99.90
48836;DHT22;62581;47.342;7.908;2023-08-06T05:54:31;15.70;99.90
48836;DHT22;62581;47.342;7.908;2023-08-06T05:56:59;15.80;99.90
48836;DHT22;62581;47.342;7.908;2023-08-06T05:59:26;15.80;99.90
48836;DHT22;62581;47.342;7.908;2023-08-06T06:01:53;15.80;99.90
48836;DHT22;62581;47.342;7.908;2023-08-06T06:04:20;15.90;99.90
48836;DHT22;62581;47.342;7.908;2023-08-06T06:06:46;15.80;99.90
48836;DHT22;62581;47.342;7.908;2023-08-06T06:09:13;15.90;99.90
48836;DHT22;62581;47.342;7.908;2023-08-06T06:11:40;16.00;99.90
48836;DHT22;62581;47.342;7.908;2023-08-06T06:14:08;16.20;99.90
48836;DHT22;62581;47.342;7.908;2023-08-06T06:16:35;16.30;99.90
48836;DHT22;62581;47.342;7.908;2023-08-06T06:19:01;16.40;99.90
48836;DHT22;62581;47.342;7.908;2023-08-06T06:21:28;16.30;99.90
48836;DHT22;62581;47.342;7.908;2023-08-06T06:23:55;16.20;99.90
48836;DHT22;62581;47.342;7.908;2023-08-06T06:26:22;16.10;99.90
48836;DHT22;62581;47.342;7.908;2023-08-06T06:28:49;15.90;99.90
48836;DHT22;62581;47.342;7.908;2023-08-06T06:31:17;15.90;99.90
48836;DHT22;62581;47.342;7.908;2023-08-06T06:33:43;15.90;99.90
48836;DHT22;62581;47.342;7.908;2023-08-06T06:36:10;15.80;99.90
48836;DHT22;62581;47.342;7.908;2023-08-06T06:38:38;15.80;99.90
48836;DHT22;62581;47.342;7.908;2023-08-06T06:41:04;15.80;99.90
48836;DHT22;62581;47.342;7.908;2023-08-06T06:43:31;15.90;99.90
48836;DHT22;62581;47.342;7.908;2023-08-06T06:45:58;15.80;99.90
48836;DHT22;62581;47.342;7.908;2023-08-06T06:48:26;15.90;99.90
48836;DHT22;62581;47.342;7.908;2023-08-06T06:50:53;15.80;99.90
48836;DHT22;62581;47.342;7.908;2023-08-06T06:53:19;15.80;99.90
48836;DHT22;62581;47.342;7.908;2023-08-06T06:55:48;15.80;99.90
48836;DHT22;62581;47.342;7.908;2023-08-06T06:58:15;15.80;99.90
48836;DHT22;62581;47.342;7.908;2023-08-06T07:00:42;15.70;99.90
48836;DHT22;62581;47.342;7.908;2023-08-06T07:03:08;15.80;99.90
48836;DHT22;62581;47.342;7.908;2023-08-06T07:05:37;15.80;99.90
48836;DHT22;62581;47.342;7.908;2023-08-06T07:08:04;15.70;99.90
48836;DHT22;62581;47.342;7.908;2023-08-06T07:10:30;15.60;99.90
48836;DHT22;62581;47.342;7.908;2023-08-06T07:12:57;15.40;99.90
48836;DHT22;62581;47.342;7.908;2023-08-06T07:15:24;15.30;99.90
48836;DHT22;62581;47.342;7.908;2023-08-06T07:17:51;15.10;99.90
48836;DHT22;62581;47.342;7.908;2023-08-06T07:20:17;14.90;99.90
48836;DHT22;62581;47.342;7.908;2023-08-06T07:22:45;14.80;99.90
48836;DHT22;62581;47.342;7.908;2023-08-06T07:25:12;14.70;99.90
48836;DHT22;62581;47.342;7.908;2023-08-06T07:27:39;14.50;99.90
48836;DHT22;62581;47.342;7.908;2023-08-06T07:30:06;14.40;99.90
48836;DHT22;62581;47.342;7.908;2023-08-06T07:32:33;14.40;99.90
48836;DHT22;62581;47.342;7.908;2023-08-06T07:35:00;14.30;99.90
48836;DHT22;62581;47.342;7.908;2023-08-06T07:37:28;14.20;99.90
48836;DHT22;62581;47.342;7.908;2023-08-06T07:39:56;14.20;99.90
48836;DHT22;62581;47.342;7.908;2023-08-06T07:42:23;14.20;99.90
48836;DHT22;62581;47.342;7.908;2023-08-06T07:44:51;14.10;99.90
48836;DHT22;62581;47.342;7.908;2023-08-06T07:47:18;14.00;99.90
48836;DHT22;62581;47.342;7.908;2023-08-06T07:49:44;14.00;99.90
48836;DHT22;62581;47.342;7.908;2023-08-06T07:52:11;13.80;99.90
48836;DHT22;62581;47.342;7.908;2023-08-06T07:54:38;13.80;99.90
48836;DHT22;62581;47.342;7.908;2023-08-06T07:57:06;13.70;99.90
48836;DHT22;62581;47.342;7.908;2023-08-06T07:59:33;13.70;99.90
48836;DHT22;62581;47.342;7.908;2023-08-06T08:02:00;13.70;99.90
48836;DHT22;62581;47.342;7.908;2023-08-06T08:04:26;13.70;99.90
48836;DHT22;62581;47.342;7.908;2023-08-06T08:06:53;13.80;99.90
48836;DHT22;62581;47.342;7.908;2023-08-06T08:09:20;13.80;99.90
48836;DHT22;62581;47.342;7.908;2023-08-06T08:11:46;14.00;99.90
48836;DHT22;62581;47.342;7.908;2023-08-06T08:14:15;13.90;99.90
48836;DHT22;62581;47.342;7.908;2023-08-06T08:16:41;13.70;99.90
48836;DHT22;62581;47.342;7.908;2023-08-06T08:19:08;13.70;99.90
48836;DHT22;62581;47.342;7.908;2023-08-06T08:21:35;13.70;99.90
48836;DHT22;62581;47.342;7.908;2023-08-06T08:24:03;13.70;99.90
48836;DHT22;62581;47.342;7.908;2023-08-06T08:26:30;13.80;99.90
48836;DHT22;62581;47.342;7.908;2023-08-06T08:28:57;13.80;99.90
48836;DHT22;62581;47.342;7.908;2023-08-06T08:31:25;13.90;99.90
48836;DHT22;62581;47.342;7.908;2023-08-06T08:33:52;14.10;99.90
48836;DHT22;62581;47.342;7.908;2023-08-06T08:36:19;14.30;99.90
48836;DHT22;62581;47.342;7.908;2023-08-06T08:38:46;14.30;99.90
48836;DHT22;62581;47.342;7.908;2023-08-06T08:41:12;14.40;99.90
48836;DHT22;62581;47.342;7.908;2023-08-06T08:43:39;14.50;99.90
48836;DHT22;62581;47.342;7.908;2023-08-06T08:46:07;14.60;99.90
48836;DHT22;62581;47.342;7.908;2023-08-06T08:48:36;14.60;99.90
48836;DHT22;62581;47.342;7.908;2023-08-06T08:51:03;14.70;99.90
48836;DHT22;62581;47.342;7.908;2023-08-06T08:53:30;14.70;99.90
48836;DHT22;62581;47.342;7.908;2023-08-06T08:55:58;14.90;99.90
48836;DHT22;62581;47.342;7.908;2023-08-06T08:58:24;15.00;99.90
48836;DHT22;62581;47.342;7.908;2023-08-06T09:00:51;15.10;99.90
48836;DHT22;62581;47.342;7.908;2023-08-06T09:03:18;15.10;99.90
48836;DHT22;62581;47.342;7.908;2023-08-06T09:05:48;15.30;99.90
48836;DHT22;62581;47.342;7.908;2023-08-06T09:08:18;15.50;99.90
48836;DHT22;62581;47.342;7.908;2023-08-06T09:10:45;15.40;99.90
48836;DHT22;62581;47.342;7.908;2023-08-06T09:13:14;15.30;99.90
48836;DHT22;62581;47.342;7.908;2023-08-06T09:15:41;15.30;99.90
48836;DHT22;62581;47.342;7.908;2023-08-06T09:18:09;15.30;99.90
48836;DHT22;62581;47.342;7.908;2023-08-06T09:20:37;15.30;99.90
48836;DHT22;62581;47.342;7.908;2023-08-06T09:23:08;15.40;99.90
48836;DHT22;62581;47.342;7.908;2023-08-06T09:25:36;15.50;99.90
48836;DHT22;62581;47.342;7.908;2023-08-06T09:28:04;15.60;99.90
48836;DHT22;62581;47.342;7.908;2023-08-06T09:30:31;15.80;99.90
48836;DHT22;62581;47.342;7.908;2023-08-06T09:32:58;15.80;99.90
48836;DHT22;62581;47.342;7.908;2023-08-06T09:35:27;15.90;99.90
48836;DHT22;62581;47.342;7.908;2023-08-06T09:37:54;16.00;99.90
48836;DHT22;62581;47.342;7.908;2023-08-06T09:40:25;16.00;99.90
48836;DHT22;62581;47.342;7.908;2023-08-06T09:42:52;16.00;99.90
48836;DHT22;62581;47.342;7.908;2023-08-06T09:45:19;16.20;99.90
48836;DHT22;62581;47.342;7.908;2023-08-06T09:47:47;16.20;99.90
48836;DHT22;62581;47.342;7.908;2023-08-06T09:50:17;16.20;99.90
48836;DHT22;62581;47.342;7.908;2023-08-06T09:52:45;16.00;99.90
48836;DHT22;62581;47.342;7.908;2023-08-06T09:55:12;16.00;99.90
48836;DHT22;62581;47.342;7.908;2023-08-06T09:57:41;16.00;99.90
48836;DHT22;62581;47.342;7.908;2023-08-06T10:00:08;16.10;99.90
48836;DHT22;62581;47.342;7.908;2023-08-06T10:02:35;15.90;99.90
48836;DHT22;62581;47.342;7.908;2023-08-06T10:05:03;15.90;99.90
48836;DHT22;62581;47.342;7.908;2023-08-06T10:07:31;15.90;99.90
48836;DHT22;62581;47.342;7.908;2023-08-06T10:09:58;15.40;99.90
48836;DHT22;62581;47.342;7.908;2023-08-06T10:12:25;15.40;99.90
48836;DHT22;62581;47.342;7.908;2023-08-06T10:14:54;15.40;99.90
48836;DHT22;62581;47.342;7.908;2023-08-06T10:17:21;15.40;99.90
48836;DHT22;62581;47.342;7.908;2023-08-06T10:19:49;15.40;99.90
48836;DHT22;62581;47.342;7.908;2023-08-06T10:22:17;15.30;99.90
48836;DHT22;62581;47.342;7.908;2023-08-06T10:24:47;15.20;99.90
48836;DHT22;62581;47.342;7.908;2023-08-06T10:27:13;15.40;99.90
48836;DHT22;62581;47.342;7.908;2023-08-06T10:29:40;15.50;99.90
48836;DHT22;62581;47.342;7.908;2023-08-06T10:32:08;15.70;99.90
48836;DHT22;62581;47.342;7.908;2023-08-06T10:37:34;15.90;99.90
48836;DHT22;62581;47.342;7.908;2023-08-06T10:40:02;15.80;99.90
48836;DHT22;62581;47.342;7.908;2023-08-06T10:42:29;15.90;99.90
48836;DHT22;62581;47.342;7.908;2023-08-06T10:47:27;16.40;99.90
48836;DHT22;62581;47.342;7.908;2023-08-06T10:49:54;16.00;99.90
48836;DHT22;62581;47.342;7.908;2023-08-06T10:52:21;15.90;99.90
48836;DHT22;62581;47.342;7.908;2023-08-06T10:54:48;16.00;99.90
48836;DHT22;62581;47.342;7.908;2023-08-06T10:57:15;16.10;99.90
48836;DHT22;62581;47.342;7.908;2023-08-06T10:59:42;16.10;99.90
48836;DHT22;62581;47.342;7.908;2023-08-06T11:02:08;16.20;99.90
48836;DHT22;62581;47.342;7.908;2023-08-06T11:04:37;16.30;99.90
48836;DHT22;62581;47.342;7.908;2023-08-06T11:07:04;16.40;99.90
48836;DHT22;62581;47.342;7.908;2023-08-06T11:09:33;16.50;99.90
48836;DHT22;62581;47.342;7.908;2023-08-06T11:11:59;16.50;99.90
48836;DHT22;62581;47.342;7.908;2023-08-06T11:14:26;16.60;99.90
48836;DHT22;62581;47.342;7.908;2023-08-06T11:16:53;16.60;99.90
48836;DHT22;62581;47.342;7.908;2023-08-06T11:19:20;16.80;99.90
48836;DHT22;62581;47.342;7.908;2023-08-06T11:21:50;16.80;99.90
48836;DHT22;62581;47.342;7.908;2023-08-06T11:24:17;16.90;99.90
48836;DHT22;62581;47.342;7.908;2023-08-06T11:26:44;17.10;99.90
48836;DHT22;62581;47.342;7.908;2023-08-06T11:29:10;17.20;99.90
48836;DHT22;62581;47.342;7.908;2023-08-06T11:31:37;17.20;99.90
48836;DHT22;62581;47.342;7.908;2023-08-06T11:34:04;17.10;99.90
48836;DHT22;62581;47.342;7.908;2023-08-06T11:36:31;16.80;99.90
48836;DHT22;62581;47.342;7.908;2023-08-06T11:38:59;16.50;99.90
48836;DHT22;62581;47.342;7.908;2023-08-06T11:41:27;16.50;99.90
48836;DHT22;62581;47.342;7.908;2023-08-06T11:43:54;16.40;99.90
48836;DHT22;62581;47.342;7.908;2023-08-06T11:46:21;16.40;99.90
48836;DHT22;62581;47.342;7.908;2023-08-06T11:48:51;16.40;99.90
48836;DHT22;62581;47.342;7.908;2023-08-06T11:51:19;16.20;99.90
48836;DHT22;62581;47.342;7.908;2023-08-06T11:53:48;16.10;99.90
48836;DHT22;62581;47.342;7.908;2023-08-06T11:56:17;16.10;99.90
48836;DHT22;62581;47.342;7.908;2023-08-06T11:58:43;16.10;99.90
48836;DHT22;62581;47.342;7.908;2023-08-06T12:01:11;16.10;99.90
48836;DHT22;62581;47.342;7.908;2023-08-06T12:03:39;16.00;99.90
48836;DHT22;62581;47.342;7.908;2023-08-06T12:06:05;15.90;99.90
48836;DHT22;62581;47.342;7.908;2023-08-06T12:08:33;15.60;99.90
48836;DHT22;62581;47.342;7.908;2023-08-06T12:10:59;15.30;99.90
48836;DHT22;62581;47.342;7.908;2023-08-06T12:13:28;15.10;99.90
48836;DHT22;62581;47.342;7.908;2023-08-06T12:15:54;15.10;99.90
48836;DHT22;62581;47.342;7.908;2023-08-06T12:18:22;14.90;99.90
48836;DHT22;62581;47.342;7.908;2023-08-06T12:20:49;15.00;99.90
48836;DHT22;62581;47.342;7.908;2023-08-06T12:23:16;15.20;99.90
48836;DHT22;62581;47.342;7.908;2023-08-06T12:25:43;15.50;99.90
48836;DHT22;62581;47.342;7.908;2023-08-06T12:28:10;15.90;99.90
48836;DHT22;62581;47.342;7.908;2023-08-06T12:30:39;16.20;99.90
48836;DHT22;62581;47.342;7.908;2023-08-06T12:33:08;16.20;99.90
48836;DHT22;62581;47.342;7.908;2023-08-06T12:35:35;16.30;99.90
48836;DHT22;62581;47.342;7.908;2023-08-06T12:38:02;16.60;99.90
48836;DHT22;62581;47.342;7.908;2023-08-06T12:40:29;16.80;99.90
48836;DHT22;62581;47.342;7.908;2023-08-06T12:42:56;17.10;99.90
48836;DHT22;62581;47.342;7.908;2023-08-06T12:45:24;17.00;99.90
48836;DHT22;62581;47.342;7.908;2023-08-06T12:47:52;17.00;99.90
48836;DHT22;62581;47.342;7.908;2023-08-06T12:50:19;17.00;99.90
48836;DHT22;62581;47.342;7.908;2023-08-06T12:52:46;17.20;99.90
48836;DHT22;62581;47.342;7.908;2023-08-06T12:55:12;17.50;99.90
48836;DHT22;62581;47.342;7.908;2023-08-06T12:57:39;17.30;99.90
48836;DHT22;62581;47.342;7.908;2023-08-06T13:00:06;17.20;99.90
48836;DHT22;62581;47.342;7.908;2023-08-06T13:02:33;17.20;99.90
48836;DHT22;62581;47.342;7.908;2023-08-06T13:05:01;17.30;99.90
48836;DHT22;62581;47.342;7.908;2023-08-06T13:07:30;17.30;99.90
48836;DHT22;62581;47.342;7.908;2023-08-06T13:09:57;17.30;99.90
48836;DHT22;62581;47.342;7.908;2023-08-06T13:12:24;17.30;99.90
48836;DHT22;62581;47.342;7.908;2023-08-06T13:14:51;17.30;99.90
48836;DHT22;62581;47.342;7.908;2023-08-06T13:17:18;17.10;99.90
48836;DHT22;62581;47.342;7.908;2023-08-06T13:19:45;17.00;99.90
48836;DHT22;62581;47.342;7.908;2023-08-06T13:22:13;16.90;99.90
48836;DHT22;62581;47.342;7.908;2023-08-06T13:24:39;17.10;99.90
48836;DHT22;62581;47.342;7.908;2023-08-06T13:27:06;18.10;99.90
48836;DHT22;62581;47.342;7.908;2023-08-06T13:29:35;18.20;99.90
48836;DHT22;62581;47.342;7.908;2023-08-06T13:32:01;18.10;99.90
48836;DHT22;62581;47.342;7.908;2023-08-06T13:34:28;18.00;99.90
48836;DHT22;62581;47.342;7.908;2023-08-06T13:36:55;18.50;99.90
48836;DHT22;62581;47.342;7.908;2023-08-06T13:39:23;19.80;99.90
48836;DHT22;62581;47.342;7.908;2023-08-06T13:41:50;20.20;99.90
48836;DHT22;62581;47.342;7.908;2023-08-06T13:44:16;20.50;99.90
48836;DHT22;62581;47.342;7.908;2023-08-06T13:46:43;21.80;99.90
48836;DHT22;62581;47.342;7.908;2023-08-06T13:49:10;23.50;99.90
48836;DHT22;62581;47.342;7.908;2023-08-06T13:51:37;25.00;99.90
48836;DHT22;62581;47.342;7.908;2023-08-06T13:54:04;24.30;99.90
48836;DHT22;62581;47.342;7.908;2023-08-06T13:59:01;25.60;99.90
48836;DHT22;62581;47.342;7.908;2023-08-06T14:01:28;25.90;99.90
48836;DHT22;62581;47.342;7.908;2023-08-06T14:03:55;25.10;99.90
48836;DHT22;62581;47.342;7.908;2023-08-06T14:06:21;25.10;99.90
48836;DHT22;62581;47.342;7.908;2023-08-06T14:08:48;24.00;99.90
48836;DHT22;62581;47.342;7.908;2023-08-06T14:11:15;22.80;99.90
48836;DHT22;62581;47.342;7.908;2023-08-06T14:13:42;21.50;99.90
48836;DHT22;62581;47.342;7.908;2023-08-06T14:16:10;20.80;99.90
48836;DHT22;62581;47.342;7.908;2023-08-06T14:18:37;20.20;99.90
48836;DHT22;62581;47.342;7.908;2023-08-06T14:21:04;19.50;99.90
48836;DHT22;62581;47.342;7.908;2023-08-06T14:23:30;18.70;99.90
48836;DHT22;62581;47.342;7.908;2023-08-06T14:25:57;18.70;99.90
48836;DHT22;62581;47.342;7.908;2023-08-06T14:28:24;19.00;99.90
48836;DHT22;62581;47.342;7.908;2023-08-06T14:30:50;20.40;99.90
48836;DHT22;62581;47.342;7.908;2023-08-06T14:33:18;22.00;99.90
48836;DHT22;62581;47.342;7.908;2023-08-06T14:35:45;22.60;99.90
48836;DHT22;62581;47.342;7.908;2023-08-06T14:38:12;22.40;99.90
48836;DHT22;62581;47.342;7.908;2023-08-06T14:40:39;22.50;99.90
48836;DHT22;62581;47.342;7.908;2023-08-06T14:43:05;22.50;99.90
48836;DHT22;62581;47.342;7.908;2023-08-06T14:45:32;22.70;99.90
48836;DHT22;62581;47.342;7.908;2023-08-06T14:47:59;22.10;99.90
48836;DHT22;62581;47.342;7.908;2023-08-06T14:50:27;21.80;99.90
48836;DHT22;62581;47.342;7.908;2023-08-06T14:52:54;23.30;99.90
48836;DHT22;62581;47.342;7.908;2023-08-06T14:55:24;24.30;99.90
48836;DHT22;62581;47.342;7.908;2023-08-06T14:57:51;25.10;99.90
48836;DHT22;62581;47.342;7.908;2023-08-06T15:00:18;23.90;99.90
48836;DHT22;62581;47.342;7.908;2023-08-06T15:02:45;22.90;99.90
48836;DHT22;62581;47.342;7.908;2023-08-06T15:05:12;22.10;99.90
48836;DHT22;62581;47.342;7.908;2023-08-06T15:07:40;21.10;99.90
48836;DHT22;62581;47.342;7.908;2023-08-06T15:10:07;20.00;99.90
48836;DHT22;62581;47.342;7.908;2023-08-06T15:12:33;21.30;99.90
48836;DHT22;62581;47.342;7.908;2023-08-06T15:15:00;22.90;99.90
48836;DHT22;62581;47.342;7.908;2023-08-06T15:17:27;24.50;99.90
48836;DHT22;62581;47.342;7.908;2023-08-06T15:19:55;23.80;99.90
48836;DHT22;62581;47.342;7.908;2023-08-06T15:22:22;24.30;99.90
48836;DHT22;62581;47.342;7.908;2023-08-06T15:24:50;25.30;99.70
48836;DHT22;62581;47.342;7.908;2023-08-06T15:27:17;27.40;98.30
48836;DHT22;62581;47.342;7.908;2023-08-06T15:29:44;28.10;93.00
48836;DHT22;62581;47.342;7.908;2023-08-06T15:32:11;27.90;93.80
48836;DHT22;62581;47.342;7.908;2023-08-06T15:34:38;29.20;92.80
48836;DHT22;62581;47.342;7.908;2023-08-06T15:37:07;30.20;86.80